sensor_id;sensor_type;location;lat;lon;timestamp;P1;durP1;ratioP1;P2;durP2;ratioP2
8626;SDS011;4351;51.422;6.794;2022-09-28T00:01:08;3.90;;;2.80;;
8626;SDS011;4351;51.422;6.794;2022-09-28T00:03:40;2.53;;;2.30;;
8626;SDS011;4351;51.422;6.794;2022-09-28T00:06:10;4.27;;;2.70;;
8626;SDS011;4351;51.422;6.794;2022-09-28T00:08:42;3.70;;;2.80;;
8626;SDS011;4351;51.422;6.794;2022-09-28T00:11:16;3.80;;;3.03;;
8626;SDS011;4351;51.422;6.794;2022-09-28T00:13:47;4.33;;;3.10;;
8626;SDS011;4351;51.422;6.794;2022-09-28T00:16:18;4.23;;;2.93;;
8626;SDS011;4351;51.422;6.794;2022-09-28T00:18:47;4.87;;;3.60;;
8626;SDS011;4351;51.422;6.794;2022-09-28T00:21:19;5.17;;;3.53;;
8626;SDS011;4351;51.422;6.794;2022-09-28T00:23:50;4.67;;;3.60;;
8626;SDS011;4351;51.422;6.794;2022-09-28T00:26:36;4.57;;;3.70;;
8626;SDS011;4351;51.422;6.794;2022-09-28T00:29:06;6.10;;;3.53;;
8626;SDS011;4351;51.422;6.794;2022-09-28T00:31:40;5.20;;;3.73;;
8626;SDS011;4351;51.422;6.794;2022-09-28T00:34:08;4.40;;;3.47;;
8626;SDS011;4351;51.422;6.794;2022-09-28T00:36:45;4.47;;;3.53;;
8626;SDS011;4351;51.422;6.794;2022-09-28T00:39:14;4.50;;;3.80;;
8626;SDS011;4351;51.422;6.794;2022-09-28T00:41:44;7.37;;;4.40;;
8626;SDS011;4351;51.422;6.794;2022-09-28T00:44:33;5.73;;;4.30;;
8626;SDS011;4351;51.422;6.794;2022-09-28T00:47:08;6.70;;;4.27;;
8626;SDS011;4351;51.422;6.794;2022-09-28T00:49:44;6.87;;;4.53;;
8626;SDS011;4351;51.422;6.794;2022-09-28T00:52:18;4.37;;;3.57;;
8626;SDS011;4351;51.422;6.794;2022-09-28T00:54:50;5.93;;;4.43;;
8626;SDS011;4351;51.422;6.794;2022-09-28T00:57:20;5.23;;;4.30;;
8626;SDS011;4351;51.422;6.794;2022-09-28T00:59:52;5.73;;;4.30;;
8626;SDS011;4351;51.422;6.794;2022-09-28T01:02:21;5.67;;;4.10;;
8626;SDS011;4351;51.422;6.794;2022-09-28T01:04:49;5.50;;;4.47;;
8626;SDS011;4351;51.422;6.794;2022-09-28T01:07:20;6.90;;;4.97;;
8626;SDS011;4351;51.422;6.794;2022-09-28T01:09:56;8.60;;;4.87;;
8626;SDS011;4351;51.422;6.794;2022-09-28T01:12:25;5.40;;;4.60;;
8626;SDS011;4351;51.422;6.794;2022-09-28T01:14:54;6.47;;;5.00;;
8626;SDS011;4351;51.422;6.794;2022-09-28T01:17:25;8.43;;;5.27;;
8626;SDS011;4351;51.422;6.794;2022-09-28T01:20:08;7.00;;;5.33;;
8626;SDS011;4351;51.422;6.794;2022-09-28T01:25:58;7.70;;;5.70;;
8626;SDS011;4351;51.422;6.794;2022-09-28T01:29:00;9.60;;;5.90;;
8626;SDS011;4351;51.422;6.794;2022-09-28T01:31:32;7.87;;;5.93;;
8626;SDS011;4351;51.422;6.794;2022-09-28T01:34:07;8.20;;;5.87;;
8626;SDS011;4351;51.422;6.794;2022-09-28T01:36:39;7.97;;;5.73;;
8626;SDS011;4351;51.422;6.794;2022-09-28T01:39:15;7.93;;;6.23;;
8626;SDS011;4351;51.422;6.794;2022-09-28T01:41:49;7.73;;;6.10;;
8626;SDS011;4351;51.422;6.794;2022-09-28T01:44:19;8.03;;;5.90;;
8626;SDS011;4351;51.422;6.794;2022-09-28T01:46:52;9.83;;;5.83;;
8626;SDS011;4351;51.422;6.794;2022-09-28T01:49:21;7.73;;;5.73;;
8626;SDS011;4351;51.422;6.794;2022-09-28T01:51:56;8.30;;;5.67;;
8626;SDS011;4351;51.422;6.794;2022-09-28T01:54:30;8.93;;;5.90;;
8626;SDS011;4351;51.422;6.794;2022-09-28T01:57:06;7.73;;;5.93;;
8626;SDS011;4351;51.422;6.794;2022-09-28T01:59:41;8.40;;;6.13;;
8626;SDS011;4351;51.422;6.794;2022-09-28T02:02:15;11.53;;;6.90;;
8626;SDS011;4351;51.422;6.794;2022-09-28T02:04:48;9.27;;;6.80;;
8626;SDS011;4351;51.422;6.794;2022-09-28T02:07:23;9.70;;;6.03;;
8626;SDS011;4351;51.422;6.794;2022-09-28T02:09:55;7.27;;;6.13;;
8626;SDS011;4351;51.422;6.794;2022-09-28T02:12:30;9.03;;;7.60;;
8626;SDS011;4351;51.422;6.794;2022-09-28T02:15:19;9.57;;;7.97;;
8626;SDS011;4351;51.422;6.794;2022-09-28T02:17:50;10.20;;;7.37;;
8626;SDS011;4351;51.422;6.794;2022-09-28T02:20:19;10.60;;;7.83;;
8626;SDS011;4351;51.422;6.794;2022-09-28T02:22:48;9.40;;;8.07;;
8626;SDS011;4351;51.422;6.794;2022-09-28T02:25:20;8.73;;;7.40;;
8626;SDS011;4351;51.422;6.794;2022-09-28T02:27:57;10.17;;;7.97;;
8626;SDS011;4351;51.422;6.794;2022-09-28T02:30:28;9.50;;;7.70;;
8626;SDS011;4351;51.422;6.794;2022-09-28T02:32:58;10.53;;;7.40;;
8626;SDS011;4351;51.422;6.794;2022-09-28T02:35:34;11.20;;;8.03;;
8626;SDS011;4351;51.422;6.794;2022-09-28T02:38:02;10.23;;;8.70;;
8626;SDS011;4351;51.422;6.794;2022-09-28T02:40:30;9.60;;;7.10;;
8626;SDS011;4351;51.422;6.794;2022-09-28T02:43:03;11.77;;;7.90;;
8626;SDS011;4351;51.422;6.794;2022-09-28T02:45:49;9.20;;;7.80;;
8626;SDS011;4351;51.422;6.794;2022-09-28T02:48:40;9.47;;;7.33;;
8626;SDS011;4351;51.422;6.794;2022-09-28T02:51:43;10.17;;;8.70;;
8626;SDS011;4351;51.422;6.794;2022-09-28T02:54:26;14.10;;;8.83;;
8626;SDS011;4351;51.422;6.794;2022-09-28T02:57:11;11.20;;;8.60;;
8626;SDS011;4351;51.422;6.794;2022-09-28T02:59:48;13.77;;;8.70;;
8626;SDS011;4351;51.422;6.794;2022-09-28T03:02:25;12.43;;;8.27;;
8626;SDS011;4351;51.422;6.794;2022-09-28T03:05:11;11.10;;;9.40;;
8626;SDS011;4351;51.422;6.794;2022-09-28T03:07:44;9.53;;;7.67;;
8626;SDS011;4351;51.422;6.794;2022-09-28T03:10:21;12.20;;;8.27;;
8626;SDS011;4351;51.422;6.794;2022-09-28T03:12:55;11.63;;;8.77;;
8626;SDS011;4351;51.422;6.794;2022-09-28T03:15:26;11.37;;;8.30;;
8626;SDS011;4351;51.422;6.794;2022-09-28T03:17:56;10.97;;;9.50;;
8626;SDS011;4351;51.422;6.794;2022-09-28T03:20:25;12.30;;;9.30;;
8626;SDS011;4351;51.422;6.794;2022-09-28T03:22:53;12.10;;;9.10;;
8626;SDS011;4351;51.422;6.794;2022-09-28T03:25:42;9.87;;;8.60;;
8626;SDS011;4351;51.422;6.794;2022-09-28T03:28:13;10.13;;;7.97;;
8626;SDS011;4351;51.422;6.794;2022-09-28T03:30:42;11.27;;;8.93;;
8626;SDS011;4351;51.422;6.794;2022-09-28T03:33:14;9.13;;;7.80;;
8626;SDS011;4351;51.422;6.794;2022-09-28T03:35:50;11.17;;;7.93;;
8626;SDS011;4351;51.422;6.794;2022-09-28T03:38:22;13.57;;;10.07;;
8626;SDS011;4351;51.422;6.794;2022-09-28T03:40:51;11.30;;;9.17;;
8626;SDS011;4351;51.422;6.794;2022-09-28T03:43:28;12.77;;;9.30;;
8626;SDS011;4351;51.422;6.794;2022-09-28T03:46:00;12.13;;;8.50;;
8626;SDS011;4351;51.422;6.794;2022-09-28T03:48:33;12.13;;;9.20;;
8626;SDS011;4351;51.422;6.794;2022-09-28T03:51:04;10.23;;;7.77;;
8626;SDS011;4351;51.422;6.794;2022-09-28T03:53:39;11.93;;;9.20;;
8626;SDS011;4351;51.422;6.794;2022-09-28T03:56:08;11.07;;;8.90;;
8626;SDS011;4351;51.422;6.794;2022-09-28T03:58:40;10.77;;;9.40;;
8626;SDS011;4351;51.422;6.794;2022-09-28T04:01:12;11.83;;;9.47;;
8626;SDS011;4351;51.422;6.794;2022-09-28T04:03:44;10.73;;;9.57;;
8626;SDS011;4351;51.422;6.794;2022-09-28T04:06:13;13.33;;;10.10;;
8626;SDS011;4351;51.422;6.794;2022-09-28T04:08:44;11.90;;;9.50;;
8626;SDS011;4351;51.422;6.794;2022-09-28T04:11:14;12.23;;;8.97;;
8626;SDS011;4351;51.422;6.794;2022-09-28T04:13:42;14.27;;;9.97;;
8626;SDS011;4351;51.422;6.794;2022-09-28T04:16:17;13.23;;;10.47;;
8626;SDS011;4351;51.422;6.794;2022-09-28T04:18:59;11.00;;;9.83;;
8626;SDS011;4351;51.422;6.794;2022-09-28T04:21:55;12.97;;;10.73;;
8626;SDS011;4351;51.422;6.794;2022-09-28T04:24:24;14.33;;;11.13;;
8626;SDS011;4351;51.422;6.794;2022-09-28T04:26:52;14.30;;;11.87;;
8626;SDS011;4351;51.422;6.794;2022-09-28T04:29:41;13.57;;;11.17;;
8626;SDS011;4351;51.422;6.794;2022-09-28T04:32:14;14.20;;;11.77;;
8626;SDS011;4351;51.422;6.794;2022-09-28T04:34:50;14.80;;;11.30;;
8626;SDS011;4351;51.422;6.794;2022-09-28T04:37:23;14.37;;;11.83;;
8626;SDS011;4351;51.422;6.794;2022-09-28T04:40:01;12.33;;;11.03;;
8626;SDS011;4351;51.422;6.794;2022-09-28T04:42:30;14.90;;;12.17;;
8626;SDS011;4351;51.422;6.794;2022-09-28T04:44:58;16.13;;;12.23;;
8626;SDS011;4351;51.422;6.794;2022-09-28T04:47:29;14.27;;;11.53;;
8626;SDS011;4351;51.422;6.794;2022-09-28T04:50:22;15.80;;;12.57;;
8626;SDS011;4351;51.422;6.794;2022-09-28T04:53:14;15.50;;;12.63;;
8626;SDS011;4351;51.422;6.794;2022-09-28T04:55:42;15.20;;;12.77;;
8626;SDS011;4351;51.422;6.794;2022-09-28T04:58:10;18.57;;;14.43;;
8626;SDS011;4351;51.422;6.794;2022-09-28T05:00:38;18.23;;;13.23;;
8626;SDS011;4351;51.422;6.794;2022-09-28T05:03:40;16.27;;;13.47;;
8626;SDS011;4351;51.422;6.794;2022-09-28T05:06:31;16.77;;;13.37;;
8626;SDS011;4351;51.422;6.794;2022-09-28T05:09:06;17.33;;;13.60;;
8626;SDS011;4351;51.422;6.794;2022-09-28T05:11:35;17.27;;;14.73;;
8626;SDS011;4351;51.422;6.794;2022-09-28T05:14:09;18.50;;;14.37;;
8626;SDS011;4351;51.422;6.794;2022-09-28T05:16:38;16.57;;;13.10;;
8626;SDS011;4351;51.422;6.794;2022-09-28T05:19:26;17.90;;;14.83;;
8626;SDS011;4351;51.422;6.794;2022-09-28T05:22:00;17.97;;;14.17;;
8626;SDS011;4351;51.422;6.794;2022-09-28T05:24:36;20.03;;;14.70;;
8626;SDS011;4351;51.422;6.794;2022-09-28T05:27:04;19.67;;;14.67;;
8626;SDS011;4351;51.422;6.794;2022-09-28T05:29:32;20.23;;;15.43;;
8626;SDS011;4351;51.422;6.794;2022-09-28T05:32:39;18.47;;;14.47;;
8626;SDS011;4351;51.422;6.794;2022-09-28T05:35:19;17.97;;;14.80;;
8626;SDS011;4351;51.422;6.794;2022-09-28T05:37:47;16.80;;;13.17;;
8626;SDS011;4351;51.422;6.794;2022-09-28T05:40:15;19.40;;;15.30;;
8626;SDS011;4351;51.422;6.794;2022-09-28T05:42:44;19.10;;;15.30;;
8626;SDS011;4351;51.422;6.794;2022-09-28T05:45:12;17.70;;;13.50;;
8626;SDS011;4351;51.422;6.794;2022-09-28T05:47:42;18.33;;;14.10;;
8626;SDS011;4351;51.422;6.794;2022-09-28T05:50:16;22.40;;;15.23;;
8626;SDS011;4351;51.422;6.794;2022-09-28T05:52:46;18.77;;;15.03;;
8626;SDS011;4351;51.422;6.794;2022-09-28T05:55:15;19.27;;;13.90;;
8626;SDS011;4351;51.422;6.794;2022-09-28T05:57:43;20.87;;;14.73;;
8626;SDS011;4351;51.422;6.794;2022-09-28T06:00:12;18.60;;;14.47;;
8626;SDS011;4351;51.422;6.794;2022-09-28T06:02:56;19.00;;;13.43;;
8626;SDS011;4351;51.422;6.794;2022-09-28T06:05:26;18.03;;;14.63;;
8626;SDS011;4351;51.422;6.794;2022-09-28T06:07:56;18.90;;;14.67;;
8626;SDS011;4351;51.422;6.794;2022-09-28T06:10:25;18.10;;;14.03;;
8626;SDS011;4351;51.422;6.794;2022-09-28T06:12:58;17.27;;;14.13;;
8626;SDS011;4351;51.422;6.794;2022-09-28T06:15:31;16.30;;;13.13;;
8626;SDS011;4351;51.422;6.794;2022-09-28T06:18:12;21.00;;;13.73;;
8626;SDS011;4351;51.422;6.794;2022-09-28T06:21:17;16.37;;;12.23;;
8626;SDS011;4351;51.422;6.794;2022-09-28T06:34:42;14.67;;;12.30;;
8626;SDS011;4351;51.422;6.794;2022-09-28T06:38:49;15.37;;;11.47;;
8626;SDS011;4351;51.422;6.794;2022-09-28T06:41:20;15.03;;;11.43;;
8626;SDS011;4351;51.422;6.794;2022-09-28T06:44:15;13.87;;;11.27;;
8626;SDS011;4351;51.422;6.794;2022-09-28T06:47:35;13.67;;;10.90;;
8626;SDS011;4351;51.422;6.794;2022-09-28T06:50:34;15.57;;;10.77;;
8626;SDS011;4351;51.422;6.794;2022-09-28T07:19:11;11.67;;;9.10;;
8626;SDS011;4351;51.422;6.794;2022-09-28T07:29:54;9.73;;;8.03;;
8626;SDS011;4351;51.422;6.794;2022-09-28T07:32:45;10.23;;;7.80;;
8626;SDS011;4351;51.422;6.794;2022-09-28T07:35:41;11.90;;;8.53;;
8626;SDS011;4351;51.422;6.794;2022-09-28T07:38:25;9.97;;;7.57;;
8626;SDS011;4351;51.422;6.794;2022-09-28T07:40:55;10.77;;;8.17;;
8626;SDS011;4351;51.422;6.794;2022-09-28T07:43:48;10.67;;;7.70;;
8626;SDS011;4351;51.422;6.794;2022-09-28T07:46:18;9.13;;;7.57;;
8626;SDS011;4351;51.422;6.794;2022-09-28T07:48:54;12.00;;;7.97;;
8626;SDS011;4351;51.422;6.794;2022-09-28T07:51:32;10.73;;;7.93;;
8626;SDS011;4351;51.422;6.794;2022-09-28T07:54:19;10.73;;;8.57;;
8626;SDS011;4351;51.422;6.794;2022-09-28T07:57:11;10.40;;;8.47;;
8626;SDS011;4351;51.422;6.794;2022-09-28T07:59:55;10.13;;;8.23;;
8626;SDS011;4351;51.422;6.794;2022-09-28T08:02:39;9.17;;;7.90;;
8626;SDS011;4351;51.422;6.794;2022-09-28T08:05:08;11.50;;;9.73;;
8626;SDS011;4351;51.422;6.794;2022-09-28T08:07:39;11.30;;;8.63;;
8626;SDS011;4351;51.422;6.794;2022-09-28T08:10:25;11.53;;;8.50;;
8626;SDS011;4351;51.422;6.794;2022-09-28T08:14:18;9.57;;;7.67;;
8626;SDS011;4351;51.422;6.794;2022-09-28T08:18:24;12.23;;;7.93;;
8626;SDS011;4351;51.422;6.794;2022-09-28T09:13:32;11.00;;;8.80;;
8626;SDS011;4351;51.422;6.794;2022-09-28T09:16:10;11.77;;;7.57;;
8626;SDS011;4351;51.422;6.794;2022-09-28T09:19:08;9.03;;;7.40;;
8626;SDS011;4351;51.422;6.794;2022-09-28T09:22:11;10.80;;;7.50;;
8626;SDS011;4351;51.422;6.794;2022-09-28T09:24:47;11.10;;;7.43;;
8626;SDS011;4351;51.422;6.794;2022-09-28T09:27:27;10.80;;;8.83;;
8626;SDS011;4351;51.422;6.794;2022-09-28T09:30:07;13.67;;;9.23;;
8626;SDS011;4351;51.422;6.794;2022-09-28T09:32:53;16.37;;;9.77;;
8626;SDS011;4351;51.422;6.794;2022-09-28T09:39:21;15.30;;;10.73;;
8626;SDS011;4351;51.422;6.794;2022-09-28T09:42:23;13.97;;;9.47;;
8626;SDS011;4351;51.422;6.794;2022-09-28T09:45:33;15.67;;;10.10;;
8626;SDS011;4351;51.422;6.794;2022-09-28T09:48:20;15.03;;;9.90;;
8626;SDS011;4351;51.422;6.794;2022-09-28T09:50:56;12.37;;;8.60;;
8626;SDS011;4351;51.422;6.794;2022-09-28T09:53:30;13.17;;;9.67;;
8626;SDS011;4351;51.422;6.794;2022-09-28T09:56:08;13.07;;;10.13;;
8626;SDS011;4351;51.422;6.794;2022-09-28T09:59:01;12.17;;;9.50;;
8626;SDS011;4351;51.422;6.794;2022-09-28T10:01:40;9.87;;;8.87;;
8626;SDS011;4351;51.422;6.794;2022-09-28T10:04:31;12.07;;;8.93;;
8626;SDS011;4351;51.422;6.794;2022-09-28T10:07:13;9.60;;;8.60;;
8626;SDS011;4351;51.422;6.794;2022-09-28T10:09:47;11.97;;;8.80;;
8626;SDS011;4351;51.422;6.794;2022-09-28T10:12:30;10.17;;;8.50;;
8626;SDS011;4351;51.422;6.794;2022-09-28T10:15:01;9.57;;;7.47;;
8626;SDS011;4351;51.422;6.794;2022-09-28T10:17:45;8.63;;;6.53;;
8626;SDS011;4351;51.422;6.794;2022-09-28T10:20:32;11.73;;;7.30;;
8626;SDS011;4351;51.422;6.794;2022-09-28T10:23:21;14.47;;;8.33;;
8626;SDS011;4351;51.422;6.794;2022-09-28T10:25:53;17.63;;;8.80;;
8626;SDS011;4351;51.422;6.794;2022-09-28T10:28:29;18.20;;;8.30;;
8626;SDS011;4351;51.422;6.794;2022-09-28T10:34:06;13.40;;;6.47;;
8626;SDS011;4351;51.422;6.794;2022-09-28T10:36:41;11.63;;;7.03;;
8626;SDS011;4351;51.422;6.794;2022-09-28T10:39:24;10.23;;;6.67;;
8626;SDS011;4351;51.422;6.794;2022-09-28T10:41:57;9.43;;;6.10;;
8626;SDS011;4351;51.422;6.794;2022-09-28T10:44:30;6.27;;;5.67;;
8626;SDS011;4351;51.422;6.794;2022-09-28T10:47:13;7.87;;;5.80;;
8626;SDS011;4351;51.422;6.794;2022-09-28T10:49:46;8.93;;;5.87;;
8626;SDS011;4351;51.422;6.794;2022-09-28T10:52:34;7.03;;;6.30;;
8626;SDS011;4351;51.422;6.794;2022-09-28T10:58:18;5.53;;;4.67;;
8626;SDS011;4351;51.422;6.794;2022-09-28T11:00:52;6.00;;;5.30;;
8626;SDS011;4351;51.422;6.794;2022-09-28T11:03:33;5.73;;;5.07;;
8626;SDS011;4351;51.422;6.794;2022-09-28T11:06:22;9.20;;;5.47;;
8626;SDS011;4351;51.422;6.794;2022-09-28T11:08:52;6.70;;;5.87;;
8626;SDS011;4351;51.422;6.794;2022-09-28T11:11:24;6.43;;;4.83;;
8626;SDS011;4351;51.422;6.794;2022-09-28T11:14:00;6.50;;;4.77;;
8626;SDS011;4351;51.422;6.794;2022-09-28T11:16:33;6.83;;;5.00;;
8626;SDS011;4351;51.422;6.794;2022-09-28T11:19:05;5.43;;;4.17;;
8626;SDS011;4351;51.422;6.794;2022-09-28T11:21:54;5.57;;;4.03;;
8626;SDS011;4351;51.422;6.794;2022-09-28T11:24:31;5.07;;;3.60;;
8626;SDS011;4351;51.422;6.794;2022-09-28T11:27:02;5.00;;;3.80;;
8626;SDS011;4351;51.422;6.794;2022-09-28T11:29:34;4.57;;;3.63;;
8626;SDS011;4351;51.422;6.794;2022-09-28T11:32:27;6.67;;;3.83;;
8626;SDS011;4351;51.422;6.794;2022-09-28T11:35:30;4.33;;;3.90;;
8626;SDS011;4351;51.422;6.794;2022-09-28T11:38:08;8.80;;;4.40;;
8626;SDS011;4351;51.422;6.794;2022-09-28T11:41:26;4.03;;;3.60;;
8626;SDS011;4351;51.422;6.794;2022-09-28T11:44:11;6.13;;;3.77;;
8626;SDS011;4351;51.422;6.794;2022-09-28T11:46:56;6.23;;;3.90;;
8626;SDS011;4351;51.422;6.794;2022-09-28T11:49:37;7.23;;;4.40;;
8626;SDS011;4351;51.422;6.794;2022-09-28T11:52:13;4.73;;;3.60;;
8626;SDS011;4351;51.422;6.794;2022-09-28T11:54:49;5.13;;;3.83;;
8626;SDS011;4351;51.422;6.794;2022-09-28T11:57:23;7.50;;;4.30;;
8626;SDS011;4351;51.422;6.794;2022-09-28T11:59:56;4.40;;;3.37;;
8626;SDS011;4351;51.422;6.794;2022-09-28T12:02:30;4.33;;;3.97;;
8626;SDS011;4351;51.422;6.794;2022-09-28T12:05:10;4.20;;;3.57;;
8626;SDS011;4351;51.422;6.794;2022-09-28T12:07:49;4.70;;;4.30;;
8626;SDS011;4351;51.422;6.794;2022-09-28T12:10:41;4.37;;;3.97;;
8626;SDS011;4351;51.422;6.794;2022-09-28T12:13:24;5.47;;;3.60;;
8626;SDS011;4351;51.422;6.794;2022-09-28T12:15:54;7.37;;;3.40;;
8626;SDS011;4351;51.422;6.794;2022-09-28T12:18:48;5.33;;;3.90;;
8626;SDS011;4351;51.422;6.794;2022-09-28T12:21:27;5.67;;;4.10;;
8626;SDS011;4351;51.422;6.794;2022-09-28T12:24:03;5.07;;;3.50;;
8626;SDS011;4351;51.422;6.794;2022-09-28T12:26:41;6.77;;;4.20;;
8626;SDS011;4351;51.422;6.794;2022-09-28T12:29:14;5.30;;;3.80;;
8626;SDS011;4351;51.422;6.794;2022-09-28T12:31:54;4.93;;;3.50;;
8626;SDS011;4351;51.422;6.794;2022-09-28T12:34:27;3.43;;;3.20;;
8626;SDS011;4351;51.422;6.794;2022-09-28T12:36:59;3.17;;;2.90;;
8626;SDS011;4351;51.422;6.794;2022-09-28T12:39:40;6.57;;;3.43;;
8626;SDS011;4351;51.422;6.794;2022-09-28T12:42:28;3.83;;;3.50;;
8626;SDS011;4351;51.422;6.794;2022-09-28T12:45:15;3.00;;;2.73;;
8626;SDS011;4351;51.422;6.794;2022-09-28T12:48:04;3.93;;;3.17;;
8626;SDS011;4351;51.422;6.794;2022-09-28T12:50:43;3.53;;;3.03;;
8626;SDS011;4351;51.422;6.794;2022-09-28T12:53:33;6.67;;;3.00;;
8626;SDS011;4351;51.422;6.794;2022-09-28T12:56:22;7.00;;;3.23;;
8626;SDS011;4351;51.422;6.794;2022-09-28T12:59:04;3.37;;;3.00;;
8626;SDS011;4351;51.422;6.794;2022-09-28T13:01:49;4.83;;;3.50;;
8626;SDS011;4351;51.422;6.794;2022-09-28T13:04:40;6.80;;;3.53;;
8626;SDS011;4351;51.422;6.794;2022-09-28T13:07:21;6.03;;;3.30;;
8626;SDS011;4351;51.422;6.794;2022-09-28T13:10:02;3.17;;;2.30;;
8626;SDS011;4351;51.422;6.794;2022-09-28T13:15:40;4.67;;;3.00;;
8626;SDS011;4351;51.422;6.794;2022-09-28T13:18:17;3.80;;;2.93;;
8626;SDS011;4351;51.422;6.794;2022-09-28T13:20:56;2.03;;;1.87;;
8626;SDS011;4351;51.422;6.794;2022-09-28T13:23:33;2.50;;;2.30;;
8626;SDS011;4351;51.422;6.794;2022-09-28T13:26:13;4.17;;;2.30;;
8626;SDS011;4351;51.422;6.794;2022-09-28T13:28:49;6.07;;;2.60;;
8626;SDS011;4351;51.422;6.794;2022-09-28T13:31:28;4.50;;;2.30;;
8626;SDS011;4351;51.422;6.794;2022-09-28T13:34:05;4.43;;;1.90;;
8626;SDS011;4351;51.422;6.794;2022-09-28T13:39:46;3.70;;;3.30;;
8626;SDS011;4351;51.422;6.794;2022-09-28T13:45:39;5.60;;;3.27;;
8626;SDS011;4351;51.422;6.794;2022-09-28T13:48:19;3.30;;;3.00;;
8626;SDS011;4351;51.422;6.794;2022-09-28T13:54:27;4.97;;;3.00;;
8626;SDS011;4351;51.422;6.794;2022-09-28T13:57:10;3.57;;;2.07;;
8626;SDS011;4351;51.422;6.794;2022-09-28T13:59:53;2.33;;;2.13;;
8626;SDS011;4351;51.422;6.794;2022-09-28T14:02:40;2.90;;;1.93;;
8626;SDS011;4351;51.422;6.794;2022-09-28T14:05:32;3.40;;;2.30;;
8626;SDS011;4351;51.422;6.794;2022-09-28T14:08:29;2.70;;;2.50;;
8626;SDS011;4351;51.422;6.794;2022-09-28T14:11:38;3.07;;;2.33;;
8626;SDS011;4351;51.422;6.794;2022-09-28T14:29:05;2.63;;;2.43;;
8626;SDS011;4351;51.422;6.794;2022-09-28T14:31:46;3.83;;;2.43;;
8626;SDS011;4351;51.422;6.794;2022-09-28T14:34:30;3.17;;;2.87;;
8626;SDS011;4351;51.422;6.794;2022-09-28T14:37:01;6.00;;;3.20;;
8626;SDS011;4351;51.422;6.794;2022-09-28T14:39:49;4.40;;;2.80;;
8626;SDS011;4351;51.422;6.794;2022-09-28T14:42:38;5.23;;;4.00;;
8626;SDS011;4351;51.422;6.794;2022-09-28T15:08:33;3.33;;;1.70;;
8626;SDS011;4351;51.422;6.794;2022-09-28T15:11:07;2.30;;;1.03;;
8626;SDS011;4351;51.422;6.794;2022-09-28T15:14:03;2.07;;;1.40;;
8626;SDS011;4351;51.422;6.794;2022-09-28T15:16:44;2.63;;;1.20;;
8626;SDS011;4351;51.422;6.794;2022-09-28T15:20:24;2.33;;;1.43;;
8626;SDS011;4351;51.422;6.794;2022-09-28T15:22:44;2.30;;;1.10;;
8626;SDS011;4351;51.422;6.794;2022-09-28T15:29:01;1.77;;;1.00;;
8626;SDS011;4351;51.422;6.794;2022-09-28T15:33:22;2.37;;;1.30;;
8626;SDS011;4351;51.422;6.794;2022-09-28T15:36:32;2.23;;;1.37;;
8626;SDS011;4351;51.422;6.794;2022-09-28T15:40:30;3.37;;;1.57;;
8626;SDS011;4351;51.422;6.794;2022-09-28T15:43:02;3.97;;;1.90;;
8626;SDS011;4351;51.422;6.794;2022-09-28T15:45:56;1.77;;;1.20;;
8626;SDS011;4351;51.422;6.794;2022-09-28T15:48:32;3.30;;;1.40;;
8626;SDS011;4351;51.422;6.794;2022-09-28T15:51:08;3.83;;;1.00;;
8626;SDS011;4351;51.422;6.794;2022-09-28T15:53:41;2.50;;;1.20;;
8626;SDS011;4351;51.422;6.794;2022-09-28T15:56:13;2.00;;;1.20;;
8626;SDS011;4351;51.422;6.794;2022-09-28T15:58:43;1.83;;;1.03;;
8626;SDS011;4351;51.422;6.794;2022-09-28T16:01:35;3.07;;;1.40;;
8626;SDS011;4351;51.422;6.794;2022-09-28T16:08:10;2.97;;;1.70;;
8626;SDS011;4351;51.422;6.794;2022-09-28T16:11:24;2.17;;;1.60;;
8626;SDS011;4351;51.422;6.794;2022-09-28T16:14:05;2.80;;;1.63;;
8626;SDS011;4351;51.422;6.794;2022-09-28T16:17:05;1.83;;;1.40;;
8626;SDS011;4351;51.422;6.794;2022-09-28T16:19:46;1.43;;;1.20;;
8626;SDS011;4351;51.422;6.794;2022-09-28T16:22:16;2.83;;;2.57;;
8626;SDS011;4351;51.422;6.794;2022-09-28T16:25:00;3.83;;;3.53;;
8626;SDS011;4351;51.422;6.794;2022-09-28T16:31:40;2.53;;;1.60;;
8626;SDS011;4351;51.422;6.794;2022-09-28T16:34:17;1.40;;;1.30;;
8626;SDS011;4351;51.422;6.794;2022-09-28T16:36:49;2.13;;;1.93;;
8626;SDS011;4351;51.422;6.794;2022-09-28T16:42:29;1.77;;;1.50;;
8626;SDS011;4351;51.422;6.794;2022-09-28T16:45:08;2.07;;;1.50;;
8626;SDS011;4351;51.422;6.794;2022-09-28T17:07:25;2.03;;;1.50;;
8626;SDS011;4351;51.422;6.794;2022-09-28T17:09:53;1.93;;;1.30;;
8626;SDS011;4351;51.422;6.794;2022-09-28T17:12:21;2.00;;;1.57;;
8626;SDS011;4351;51.422;6.794;2022-09-28T17:14:54;4.13;;;2.00;;
8626;SDS011;4351;51.422;6.794;2022-09-28T17:17:23;2.80;;;1.70;;
8626;SDS011;4351;51.422;6.794;2022-09-28T17:19:55;4.00;;;2.10;;
8626;SDS011;4351;51.422;6.794;2022-09-28T17:22:25;3.77;;;1.90;;
8626;SDS011;4351;51.422;6.794;2022-09-28T17:24:53;5.37;;;2.07;;
8626;SDS011;4351;51.422;6.794;2022-09-28T17:27:21;5.57;;;2.30;;
8626;SDS011;4351;51.422;6.794;2022-09-28T17:29:49;6.60;;;2.53;;
8626;SDS011;4351;51.422;6.794;2022-09-28T17:32:17;5.63;;;2.70;;
8626;SDS011;4351;51.422;6.794;2022-09-28T17:34:46;4.67;;;2.30;;
8626;SDS011;4351;51.422;6.794;2022-09-28T17:37:35;8.23;;;2.90;;
8626;SDS011;4351;51.422;6.794;2022-09-28T17:40:06;4.13;;;2.50;;
8626;SDS011;4351;51.422;6.794;2022-09-28T17:42:42;8.30;;;2.93;;
8626;SDS011;4351;51.422;6.794;2022-09-28T17:45:12;5.43;;;2.50;;
8626;SDS011;4351;51.422;6.794;2022-09-28T17:47:44;5.73;;;2.63;;
8626;SDS011;4351;51.422;6.794;2022-09-28T17:50:18;6.50;;;2.50;;
8626;SDS011;4351;51.422;6.794;2022-09-28T17:52:49;5.63;;;3.00;;
8626;SDS011;4351;51.422;6.794;2022-09-28T17:55:21;5.43;;;2.07;;
8626;SDS011;4351;51.422;6.794;2022-09-28T17:57:50;7.40;;;3.10;;
8626;SDS011;4351;51.422;6.794;2022-09-28T18:00:18;7.43;;;2.73;;
8626;SDS011;4351;51.422;6.794;2022-09-28T18:02:51;9.47;;;3.60;;
8626;SDS011;4351;51.422;6.794;2022-09-28T18:05:20;8.13;;;3.57;;
8626;SDS011;4351;51.422;6.794;2022-09-28T18:07:50;7.63;;;3.00;;
8626;SDS011;4351;51.422;6.794;2022-09-28T18:10:20;3.90;;;2.20;;
8626;SDS011;4351;51.422;6.794;2022-09-28T18:12:49;5.70;;;2.53;;
8626;SDS011;4351;51.422;6.794;2022-09-28T18:15:17;6.70;;;2.97;;
8626;SDS011;4351;51.422;6.794;2022-09-28T18:17:46;5.70;;;2.50;;
8626;SDS011;4351;51.422;6.794;2022-09-28T18:20:14;3.73;;;2.47;;
8626;SDS011;4351;51.422;6.794;2022-09-28T18:22:42;4.43;;;2.37;;
8626;SDS011;4351;51.422;6.794;2022-09-28T18:25:11;3.97;;;2.10;;
8626;SDS011;4351;51.422;6.794;2022-09-28T18:27:40;6.90;;;2.50;;
8626;SDS011;4351;51.422;6.794;2022-09-28T18:30:08;5.37;;;3.20;;
8626;SDS011;4351;51.422;6.794;2022-09-28T18:32:37;4.13;;;2.67;;
8626;SDS011;4351;51.422;6.794;2022-09-28T18:35:06;7.03;;;3.50;;
8626;SDS011;4351;51.422;6.794;2022-09-28T18:37:35;5.87;;;3.10;;
8626;SDS011;4351;51.422;6.794;2022-09-28T18:40:05;7.27;;;4.13;;
8626;SDS011;4351;51.422;6.794;2022-09-28T18:42:36;6.20;;;3.67;;
8626;SDS011;4351;51.422;6.794;2022-09-28T18:45:05;6.67;;;3.60;;
8626;SDS011;4351;51.422;6.794;2022-09-28T18:47:36;7.90;;;3.80;;
8626;SDS011;4351;51.422;6.794;2022-09-28T18:50:05;7.30;;;4.10;;
8626;SDS011;4351;51.422;6.794;2022-09-28T18:52:34;6.63;;;4.07;;
8626;SDS011;4351;51.422;6.794;2022-09-28T18:55:03;6.23;;;3.77;;
8626;SDS011;4351;51.422;6.794;2022-09-28T18:57:33;5.23;;;3.80;;
8626;SDS011;4351;51.422;6.794;2022-09-28T19:00:04;6.87;;;3.93;;
8626;SDS011;4351;51.422;6.794;2022-09-28T19:02:41;8.00;;;4.20;;
8626;SDS011;4351;51.422;6.794;2022-09-28T19:05:40;6.00;;;3.87;;
8626;SDS011;4351;51.422;6.794;2022-09-28T19:08:11;7.23;;;4.57;;
8626;SDS011;4351;51.422;6.794;2022-09-28T19:10:40;6.10;;;4.63;;
8626;SDS011;4351;51.422;6.794;2022-09-28T19:13:11;7.87;;;4.37;;
8626;SDS011;4351;51.422;6.794;2022-09-28T19:15:42;7.57;;;4.40;;
8626;SDS011;4351;51.422;6.794;2022-09-28T19:18:13;6.83;;;4.43;;
8626;SDS011;4351;51.422;6.794;2022-09-28T19:20:43;7.40;;;4.80;;
8626;SDS011;4351;51.422;6.794;2022-09-28T19:23:14;9.57;;;4.73;;
8626;SDS011;4351;51.422;6.794;2022-09-28T19:25:44;6.30;;;4.27;;
8626;SDS011;4351;51.422;6.794;2022-09-28T19:28:14;7.70;;;4.63;;
8626;SDS011;4351;51.422;6.794;2022-09-28T19:30:46;7.07;;;4.40;;
8626;SDS011;4351;51.422;6.794;2022-09-28T19:33:23;6.97;;;4.37;;